Time;durP1;ratioP1;P1;durP2;ratioP2;P2;SDS_P1;SDS_P2;PMS_P1;PMS_P2;Temp;Humidity;BMP_temperature;BMP_pressure;BME280_temperature;BME280_humidity;BME280_pressure;Samples;Min_cycle;Max_cycle;Signal;HPM_P1;HPM_P2
2023/08/23 00:00:06;;;;;;;7.55;4.65;;;;;;;15.86;100.00;101933.06;5092171;28;20030;-51
2023/08/23 00:02:31;;;;;;;6.20;4.90;;;;;;;15.84;100.00;101926.94;5089860;28;20085;-53
2023/08/23 00:04:56;;;;;;;5.10;4.40;;;;;;;15.82;100.00;101922.63;5090451;28;20067;-52
2023/08/23 00:07:22;;;;;;;6.60;5.00;;;;;;;15.77;100.00;101922.75;5092474;28;20040;-49
2023/08/23 00:09:47;;;;;;;8.02;5.45;;;;;;;15.79;100.00;101918.25;5090124;28;20028;-51
2023/08/23 00:12:12;;;;;;;5.78;5.15;;;;;;;15.48;100.00;101861.91;5091206;28;20043;-50
2023/08/23 00:14:38;;;;;;;6.90;5.20;;;;;;;15.63;100.00;101890.56;5091686;28;20047;-51
2023/08/23 00:17:04;;;;;;;7.63;5.13;;;;;;;15.35;100.00;101829.66;5091924;28;20517;-50
2023/08/23 00:19:29;;;;;;;6.18;5.20;;;;;;;15.55;100.00;101879.38;5092188;28;20037;-51
2023/08/23 00:21:55;;;;;;;5.93;4.72;;;;;;;15.32;100.00;101831.53;5092208;28;20071;-47
2023/08/23 00:24:20;;;;;;;7.47;4.82;;;;;;;15.66;100.00;101893.09;5092101;28;20046;-53
2023/08/23 00:26:46;;;;;;;7.95;5.40;;;;;;;15.74;100.00;101898.97;5090471;28;20036;-49
2023/08/23 00:29:11;;;;;;;6.63;5.43;;;;;;;15.30;100.00;101836.00;5091062;28;20036;-53
2023/08/23 00:31:36;;;;;;;5.82;5.28;;;;;;;15.72;100.00;101906.16;5091813;28;20525;-54
2023/08/23 00:34:02;;;;;;;7.97;4.60;;;;;;;15.55;100.00;101874.06;5091833;28;20028;-56
2023/08/23 00:36:28;;;;;;;6.70;5.10;;;;;;;15.67;100.00;101892.19;5091719;28;20441;-51
2023/08/23 00:38:55;;;;;;;7.47;5.07;;;;;;;15.53;100.00;101875.88;5091916;28;20462;-52
2023/08/23 00:41:20;;;;;;;6.25;4.85;;;;;;;15.29;100.00;101816.59;5091834;28;20142;-51
2023/08/23 00:43:46;;;;;;;5.63;5.05;;;;;;;15.71;100.00;101889.34;5091635;28;20042;-53
2023/08/23 00:46:11;;;;;;;6.55;5.93;;;;;;;15.28;100.00;101819.28;5090364;28;20028;-51
2023/08/23 00:48:36;;;;;;;6.78;5.60;;;;;;;15.68;100.00;101885.94;5090550;28;20447;-52
2023/08/23 00:51:02;;;;;;;7.97;5.30;;;;;;;15.70;100.00;101886.78;5091936;28;20051;-52
2023/08/23 00:53:27;;;;;;;6.25;4.60;;;;;;;15.36;100.00;101831.34;5091803;28;20072;-51
2023/08/23 00:55:53;;;;;;;7.22;5.55;;;;;;;15.64;100.00;101881.69;5091564;28;20163;-55
2023/08/23 00:58:18;;;;;;;6.97;5.10;;;;;;;15.45;100.00;101854.91;5091444;28;20032;-52
2023/08/23 01:00:44;;;;;;;7.63;5.82;;;;;;;15.23;100.00;101815.00;5091460;28;20550;-53
2023/08/23 01:03:10;;;;;;;6.63;4.45;;;;;;;15.29;100.00;101821.03;5089220;28;20141;-49
2023/08/23 01:05:38;;;;;;;8.70;6.10;;;;;;;15.37;100.00;101841.06;5090127;28;20044;-52
2023/08/23 01:08:35;;;;;;;8.05;5.88;;;;;;;15.73;100.00;101895.47;5090435;28;20028;-51
2023/08/23 01:11:54;;;;;;;9.32;5.53;;;;;;;15.74;100.00;101889.25;5090361;28;20487;-49
2023/08/23 01:14:26;;;;;;;9.07;6.05;;;;;;;15.77;100.00;101896.22;4994555;28;20594;-50
2023/08/23 01:16:52;;;;;;;6.28;5.32;;;;;;;15.73;100.00;101884.00;5092044;28;20040;-53
2023/08/23 01:19:31;;;;;;;9.20;5.72;;;;;;;15.75;100.00;101890.97;5093023;28;20433;-52
2023/08/23 01:21:56;;;;;;;5.35;4.82;;;;;;;15.72;100.00;101888.44;5093584;28;20130;-49
2023/08/23 01:24:22;;;;;;;5.93;4.93;;;;;;;15.68;100.00;101889.47;5094203;28;20115;-47
2023/08/23 01:26:48;;;;;;;9.60;4.88;;;;;;;15.49;100.00;101848.59;5095280;28;20131;-50
2023/08/23 01:29:14;;;;;;;9.27;4.72;;;;;;;15.64;100.00;101876.38;5094938;28;20035;-50
2023/08/23 01:31:42;;;;;;;5.95;4.47;;;;;;;15.22;100.00;101812.44;5094757;28;20051;-52
2023/08/23 01:34:23;;;;;;;9.18;5.78;;;;;;;15.23;100.00;101815.00;5093838;28;20032;-52
2023/08/23 01:36:49;;;;;;;11.30;6.23;;;;;;;15.51;100.00;101859.16;5092867;28;20084;-49
2023/08/23 01:39:15;;;;;;;9.48;5.35;;;;;;;15.61;100.00;101885.31;5095312;28;20534;-49
2023/08/23 01:41:40;;;;;;;6.82;5.32;;;;;;;15.44;100.00;101855.81;5093350;28;20047;-50
2023/08/23 01:44:05;;;;;;;6.95;6.10;;;;;;;15.31;100.00;101830.66;5094835;28;20047;-49
2023/08/23 01:46:32;;;;;;;6.43;5.30;;;;;;;15.09;100.00;101798.75;5093540;28;20047;-49
2023/08/23 01:48:57;;;;;;;8.63;6.10;;;;;;;15.40;100.00;101846.25;5094500;28;20032;-49
2023/08/23 01:51:23;;;;;;;6.65;5.60;;;;;;;15.09;100.00;101801.38;5093263;28;20051;-51
2023/08/23 01:53:48;;;;;;;7.80;5.88;;;;;;;15.45;100.00;101876.13;5093674;28;20183;-51
2023/08/23 01:56:14;;;;;;;10.27;6.38;;;;;;;15.45;100.00;101864.66;5094405;28;20032;-50
2023/08/23 01:58:39;;;;;;;10.05;6.32;;;;;;;14.97;100.00;101788.56;5092750;28;20479;-51
2023/08/23 02:01:04;;;;;;;9.23;6.90;;;;;;;15.02;100.00;101810.50;5092740;28;20119;-50
2023/08/23 02:03:30;;;;;;;8.60;6.72;;;;;;;15.38;100.00;101873.75;5094396;28;20052;-51
2023/08/23 02:05:55;;;;;;;8.18;6.78;;;;;;;14.95;100.00;101792.19;5093225;28;20051;-55
2023/08/23 02:08:21;;;;;;;9.98;7.22;;;;;;;15.35;100.00;101860.63;5094320;28;20055;-52
2023/08/23 02:10:46;;;;;;;10.25;6.68;;;;;;;15.11;100.00;101828.75;5092812;28;20067;-52
2023/08/23 02:13:11;;;;;;;8.85;7.10;;;;;;;15.28;100.00;101856.44;5094140;28;20586;-49
2023/08/23 02:15:37;;;;;;;10.30;7.15;;;;;;;15.30;100.00;101865.19;5092792;28;20039;-46
2023/08/23 02:18:02;;;;;;;11.02;7.63;;;;;;;14.89;100.00;101790.63;5094162;28;20032;-49
2023/08/23 02:20:27;;;;;;;11.65;7.32;;;;;;;14.90;100.00;101791.50;5093903;28;20044;-51
2023/08/23 02:22:53;;;;;;;11.60;7.25;;;;;;;15.34;100.00;101870.34;5093977;28;20064;-52
2023/08/23 02:25:18;;;;;;;8.00;7.20;;;;;;;14.91;100.00;101791.47;5093554;28;20471;-49
2023/08/23 02:27:43;;;;;;;9.20;6.40;;;;;;;15.32;100.00;101864.25;5094085;28;20144;-52
2023/08/23 02:30:09;;;;;;;10.90;8.30;;;;;;;15.33;100.00;101868.59;5093727;28;20032;-50
2023/08/23 02:32:35;;;;;;;10.18;7.53;;;;;;;15.30;100.00;101863.41;5092559;28;20036;-50
2023/08/23 02:35:02;;;;;;;9.88;7.55;;;;;;;15.31;100.00;101869.59;5094004;28;20471;-53
2023/08/23 02:37:27;;;;;;;9.75;6.90;;;;;;;14.93;100.00;101792.25;5093629;28;20475;-48
2023/08/23 02:39:52;;;;;;;11.40;7.82;;;;;;;15.26;100.00;101843.25;5093374;28;20035;-50
2023/08/23 02:42:17;;;;;;;8.32;7.53;;;;;;;14.91;100.00;101780.84;5093751;28;20047;-49
2023/08/23 02:44:43;;;;;;;10.52;8.45;;;;;;;14.89;100.00;101771.19;5093567;28;20047;-51
2023/08/23 02:47:08;;;;;;;8.52;7.50;;;;;;;14.87;100.00;101779.22;5093680;28;20044;-51
2023/08/23 02:49:33;;;;;;;11.68;7.82;;;;;;;14.82;100.00;101765.28;5092080;28;20055;-47
2023/08/23 02:51:59;;;;;;;12.32;8.10;;;;;;;15.28;100.00;101833.44;5093488;28;20063;-53
2023/08/23 02:54:24;;;;;;;9.43;7.68;;;;;;;15.39;100.00;101844.50;5093775;28;20119;-50
2023/08/23 02:56:49;;;;;;;9.23;8.15;;;;;;;15.41;100.00;101840.00;5093484;28;20491;-48
2023/08/23 02:59:15;;;;;;;9.65;8.13;;;;;;;15.14;100.00;101786.19;5093453;28;20444;-53
2023/08/23 03:01:40;;;;;;;10.05;7.85;;;;;;;15.51;100.00;101844.09;5091910;28;20127;-49
2023/08/23 03:04:05;;;;;;;9.55;8.20;;;;;;;15.56;100.00;101841.25;5091909;28;20483;-52
2023/08/23 03:06:30;;;;;;;11.25;8.82;;;;;;;15.13;100.00;101755.28;5092007;28;20044;-54
2023/08/23 03:08:56;;;;;;;11.57;8.10;;;;;;;15.58;100.00;101829.69;5093501;28;20044;-50
2023/08/23 03:11:21;;;;;;;11.70;8.95;;;;;;;15.65;100.00;101828.53;5093195;28;20070;-53
2023/08/23 03:13:46;;;;;;;10.50;8.50;;;;;;;15.69;100.00;101842.56;5091624;28;20039;-50
2023/08/23 03:16:12;;;;;;;12.43;8.88;;;;;;;15.65;100.00;101835.63;5092902;28;20445;-51
2023/08/23 03:18:37;;;;;;;11.00;9.10;;;;;;;15.61;100.00;101840.19;5091235;28;20406;-49
2023/08/23 03:21:02;;;;;;;13.65;9.88;;;;;;;15.39;100.00;101809.16;5093071;28;20450;-51
2023/08/23 03:23:28;;;;;;;12.70;9.00;;;;;;;15.53;100.00;101849.34;5091788;28;20032;-54
2023/08/23 03:25:53;;;;;;;14.30;9.45;;;;;;;15.07;100.00;101775.84;5092615;28;20384;-48
2023/08/23 03:28:19;;;;;;;10.15;8.40;;;;;;;15.01;100.00;101766.34;5092592;28;20090;-47
2023/08/23 03:30:44;;;;;;;13.35;9.35;;;;;;;15.39;100.00;101843.66;5091490;28;20035;-49
2023/08/23 03:33:09;;;;;;;10.52;8.68;;;;;;;14.96;100.00;101773.59;5091255;28;20139;-50
2023/08/23 03:35:35;;;;;;;10.35;8.98;;;;;;;15.37;100.00;101848.16;5092646;28;20044;-53
2023/08/23 03:38:00;;;;;;;12.18;10.25;;;;;;;15.33;100.00;101834.13;5089598;28;20058;-51
2023/08/23 03:40:26;;;;;;;13.43;10.07;;;;;;;14.95;100.00;101777.16;5092631;28;20467;-47
2023/08/23 03:42:51;;;;;;;11.02;7.90;;;;;;;15.32;100.00;101844.81;5092441;28;20028;-48
2023/08/23 03:45:18;;;;;;;12.23;9.35;;;;;;;15.30;100.00;101849.28;5092472;28;20043;-50
2023/08/23 03:47:43;;;;;;;12.07;8.68;;;;;;;15.28;100.00;101844.03;5092617;28;20032;-49
2023/08/23 03:50:09;;;;;;;8.43;7.55;;;;;;;14.75;100.00;101758.44;5090923;28;20064;-52
2023/08/23 03:52:35;;;;;;;11.02;8.55;;;;;;;15.17;100.00;101836.47;5090215;28;20036;-51
2023/08/23 03:55:01;;;;;;;12.20;8.50;;;;;;;15.20;100.00;101849.63;5092100;28;20039;-47
2023/08/23 03:57:26;;;;;;;14.95;9.30;;;;;;;15.14;100.00;101841.03;5074081;28;20036;-52
2023/08/23 03:59:51;;;;;;;12.52;8.93;;;;;;;15.18;100.00;101843.50;5090686;28;20032;-51
2023/08/23 04:02:17;;;;;;;11.45;9.18;;;;;;;14.97;100.00;101816.88;5073765;28;20098;-53
2023/08/23 04:04:42;;;;;;;12.63;8.95;;;;;;;15.07;100.00;101837.72;5092167;28;20119;-46
2023/08/23 04:07:09;;;;;;;14.73;10.07;;;;;;;14.75;100.00;101761.09;5091279;28;20036;-49
2023/08/23 04:09:34;;;;;;;14.75;10.35;;;;;;;15.20;100.00;101840.81;5090949;28;20087;-51
2023/08/23 04:11:59;;;;;;;13.65;11.10;;;;;;;15.23;100.00;101844.19;5092158;28;20483;-49
2023/08/23 04:14:25;;;;;;;15.57;11.65;;;;;;;15.10;100.00;101811.09;5092247;28;20032;-48
2023/08/23 04:16:50;;;;;;;20.50;12.80;;;;;;;15.19;100.00;101816.06;5091777;28;20043;-48
2023/08/23 04:19:15;;;;;;;20.92;12.57;;;;;;;15.28;100.00;101836.09;5092149;28;20420;-50
2023/08/23 04:21:41;;;;;;;19.67;12.93;;;;;;;15.10;100.00;101803.13;5092140;28;20032;-52
2023/08/23 04:24:06;;;;;;;24.55;13.20;;;;;;;15.28;100.00;101821.94;5092225;28;20032;-49
2023/08/23 04:26:32;;;;;;;20.35;13.07;;;;;;;15.36;100.00;101828.72;5090937;28;20048;-54
2023/08/23 04:28:57;;;;;;;26.20;14.32;;;;;;;15.00;100.00;101769.06;5091847;28;20035;-50
2023/08/23 04:31:22;;;;;;;29.95;17.40;;;;;;;15.37;100.00;101834.88;5091787;28;20510;-55
2023/08/23 04:33:47;;;;;;;26.33;14.65;;;;;;;15.07;100.00;101781.16;5092031;28;20128;-49
2023/08/23 04:36:13;;;;;;;21.95;14.75;;;;;;;15.39;100.00;101836.56;5090901;28;20032;-53
2023/08/23 04:38:38;;;;;;;28.27;16.85;;;;;;;14.98;100.00;101762.91;5091984;28;20035;-50
2023/08/23 04:41:04;;;;;;;27.45;16.70;;;;;;;14.98;100.00;101755.84;5091958;28;20044;-53
2023/08/23 04:43:30;;;;;;;26.30;16.55;;;;;;;15.41;100.00;101828.56;5090664;28;20028;-54
2023/08/23 04:45:56;;;;;;;30.50;17.17;;;;;;;15.36;100.00;101825.19;5091516;28;20080;-51
2023/08/23 04:48:23;;;;;;;33.40;18.90;;;;;;;15.36;100.00;101803.97;5090726;28;20040;-52
2023/08/23 04:50:55;;;;;;;28.90;18.40;;;;;;;15.53;100.00;101828.09;5093912;28;20386;-49
2023/08/23 04:53:20;;;;;;;32.80;20.77;;;;;;;15.54;100.00;101828.06;5096103;28;20057;-50
2023/08/23 04:55:47;;;;;;;41.83;22.45;;;;;;;15.53;100.00;101817.50;5094368;28;20115;-49
2023/08/23 04:58:12;;;;;;;42.90;23.98;;;;;;;15.32;100.00;101765.22;5095413;28;20597;-50
2023/08/23 05:00:38;;;;;;;44.00;23.67;;;;;;;15.79;100.00;101832.47;5095373;28;20126;-53
2023/08/23 05:03:04;;;;;;;37.15;21.38;;;;;;;15.42;100.00;101758.63;5095886;28;20052;-49
2023/08/23 05:05:29;;;;;;;49.63;24.35;;;;;;;15.58;100.00;101784.59;5094113;28;20032;-52
2023/08/23 05:07:55;;;;;;;43.10;25.55;;;;;;;15.66;100.00;101790.47;5093794;28;20047;-51
2023/08/23 05:10:20;;;;;;;48.80;24.40;;;;;;;15.62;100.00;101761.41;5095407;28;20090;-47
2023/08/23 05:12:46;;;;;;;48.20;24.33;;;;;;;16.13;100.00;101832.88;5095398;28;20039;-50
2023/08/23 05:15:11;;;;;;;53.28;26.98;;;;;;;15.72;100.00;101766.34;5094958;28;20101;-47
2023/08/23 05:17:37;;;;;;;49.05;26.17;;;;;;;15.79;100.00;101761.63;5095206;28;20040;-51
2023/08/23 05:20:03;;;;;;;51.13;24.23;;;;;;;15.92;100.00;101786.78;5092756;28;20028;-51
2023/08/23 05:22:28;;;;;;;52.20;27.23;;;;;;;15.94;100.00;101762.81;5094178;28;20062;-52
2023/08/23 05:24:53;;;;;;;45.95;27.30;;;;;;;15.96;100.00;101751.22;5093926;28;20036;-53
2023/08/23 05:27:19;;;;;;;55.63;27.00;;;;;;;16.09;100.00;101755.09;5094590;28;20059;-49
2023/08/23 05:29:44;;;;;;;48.35;26.50;;;;;;;16.50;100.00;101813.63;5094733;28;20047;-52
2023/08/23 05:32:10;;;;;;;51.85;27.42;;;;;;;16.68;100.00;101827.06;5094082;28;20072;-53
2023/08/23 05:34:35;;;;;;;48.35;25.92;;;;;;;16.42;100.00;101760.81;5094866;28;20035;-53
2023/08/23 05:37:00;;;;;;;52.70;26.88;;;;;;;16.91;100.00;101833.19;5094637;28;20060;-50
2023/08/23 05:39:26;;;;;;;56.35;26.25;;;;;;;17.02;100.00;101837.13;5093677;28;20521;-51
2023/08/23 05:41:51;;;;;;;52.00;27.65;;;;;;;17.12;100.00;101835.81;5094852;28;20340;-53
2023/08/23 05:44:16;;;;;;;55.13;26.95;;;;;;;17.26;100.00;101841.38;5094812;28;20051;-50
2023/08/23 05:46:42;;;;;;;46.72;25.60;;;;;;;17.02;100.00;101783.94;5093461;28;20387;-50
2023/08/23 05:49:07;;;;;;;53.30;27.67;;;;;;;17.52;100.00;101840.22;5094750;28;20039;-46
2023/08/23 05:51:32;;;;;;;57.58;26.38;;;;;;;17.36;100.00;101797.47;5094541;28;20108;-51
2023/08/23 05:53:58;;;;;;;60.40;26.42;;;;;;;17.20;100.00;101750.31;5092470;28;20036;-48
2023/08/23 05:56:24;;;;;;;57.22;27.67;;;;;;;17.38;100.00;101760.13;5093638;28;20044;-53
2023/08/23 05:58:49;;;;;;;59.78;28.92;;;;;;;17.82;100.00;101819.34;5093415;28;20044;-52
2023/08/23 06:01:15;;;;;;;66.80;30.23;;;;;;;17.91;100.00;101826.91;5089996;28;20059;-52
2023/08/23 06:03:40;;;;;;;67.03;31.38;;;;;;;17.99;100.00;101827.41;5080710;28;20491;-50
2023/08/23 06:06:05;;;;;;;64.38;29.75;;;;;;;18.16;100.00;101842.56;5074367;28;20471;-55
2023/08/23 06:08:31;;;;;;;61.13;29.27;;;;;;;18.20;100.00;101837.03;5088108;28;20085;-54
2023/08/23 06:10:56;;;;;;;60.17;28.17;;;;;;;18.20;100.00;101825.50;5086472;28;20401;-51
2023/08/23 06:13:22;;;;;;;63.70;30.17;;;;;;;18.06;100.00;101788.00;5073922;28;20106;-52
2023/08/23 06:15:47;;;;;;;64.40;31.92;;;;;;;18.51;100.00;101844.41;5085153;28;20031;-52
2023/08/23 06:18:13;;;;;;;66.15;32.55;;;;;;;18.56;100.00;101852.22;5072968;28;20036;-50
2023/08/23 06:20:39;;;;;;;69.15;30.45;;;;;;;18.52;100.00;101833.69;5089596;28;20123;-52
2023/08/23 06:23:04;;;;;;;67.93;30.88;;;;;;;18.52;100.00;101830.16;5082008;28;20052;-55
2023/08/23 06:25:29;;;;;;;74.20;34.33;;;;;;;18.20;100.00;101777.53;5082397;28;20032;-50
2023/08/23 06:27:54;;;;;;;71.50;33.15;;;;;;;18.60;100.00;101843.09;5086586;28;20028;-55
2023/08/23 06:30:21;;;;;;;71.10;34.88;;;;;;;18.43;100.00;101783.47;5090662;28;20043;-51
2023/08/23 06:32:47;;;;;;;69.38;34.88;;;;;;;18.45;100.00;101781.56;5082528;28;20135;-52
2023/08/23 06:35:13;;;;;;;74.78;36.45;;;;;;;18.88;100.00;101851.47;5075292;28;20128;-57
2023/08/23 06:37:39;;;;;;;69.63;35.92;;;;;;;18.89;100.00;101853.16;5090704;28;20067;-53
2023/08/23 06:40:05;;;;;;;75.57;37.67;;;;;;;18.64;100.00;101794.88;5087281;28;20432;-49
2023/08/23 06:42:30;;;;;;;71.68;35.50;;;;;;;19.10;100.00;101854.75;5083671;28;20383;-46
2023/08/23 06:44:55;;;;;;;68.97;35.97;;;;;;;18.92;100.00;101818.31;5088236;28;20065;-50
2023/08/23 06:47:21;;;;;;;63.80;33.63;;;;;;;19.22;100.00;101862.13;5093639;28;20123;-54
2023/08/23 06:49:46;;;;;;;62.08;32.53;;;;;;;19.27;100.00;101854.72;5093452;28;20111;-53
2023/08/23 06:52:11;;;;;;;61.30;33.40;;;;;;;19.36;100.00;101856.91;5093819;28;20523;-56
2023/08/23 06:54:37;;;;;;;56.83;32.55;;;;;;;19.40;100.00;101852.31;5092251;28;20039;-53
2023/08/23 06:57:02;;;;;;;55.33;30.90;;;;;;;19.50;100.00;101858.88;5091036;28;20024;-56
2023/08/23 06:59:27;;;;;;;55.10;31.95;;;;;;;19.16;100.00;101793.03;5090222;28;20036;-56
2023/08/23 07:01:53;;;;;;;44.47;29.30;;;;;;;19.14;100.00;101786.94;5090986;28;20044;-52
2023/08/23 07:04:18;;;;;;;49.15;28.50;;;;;;;19.22;100.00;101807.88;5092814;28;20045;-52
2023/08/23 07:06:43;;;;;;;52.47;30.05;;;;;;;19.56;100.00;101867.44;5090305;28;20039;-51
2023/08/23 07:09:10;;;;;;;53.80;29.15;;;;;;;19.24;100.00;101803.31;5090036;28;20040;-53
2023/08/23 07:11:35;;;;;;;46.28;27.45;;;;;;;19.67;100.00;101870.38;5091714;28;20089;-51
2023/08/23 07:14:00;;;;;;;46.03;28.83;;;;;;;19.47;100.00;101819.84;5073236;28;20033;-51
2023/08/23 07:16:26;;;;;;;46.50;29.90;;;;;;;19.84;100.00;101876.63;5090387;28;20043;-55
2023/08/23 07:18:51;;;;;;;42.70;30.15;;;;;;;19.90;100.00;101874.50;5093336;28;20035;-55
2023/08/23 07:21:16;;;;;;;44.65;29.38;;;;;;;19.87;100.00;101841.75;5093110;28;20040;-53
2023/08/23 07:23:42;;;;;;;45.83;29.35;;;;;;;19.80;100.00;101813.63;5093024;28;20475;-52
2023/08/23 07:26:09;;;;;;;39.03;28.38;;;;;;;20.08;100.00;101840.56;5087949;28;20039;-49
2023/08/23 07:28:34;;;;;;;37.58;26.60;;;;;;;20.10;100.00;101827.97;5089389;28;20084;-52
2023/08/23 07:31:00;;;;;;;38.40;27.42;;;;;;;20.70;100.00;101891.34;5090417;28;20036;-51
2023/08/23 07:33:26;;;;;;;33.83;25.75;;;;;;;20.48;100.00;101834.69;5089400;28;20028;-53
2023/08/23 07:35:59;;;;;;;35.00;26.38;;;;;;;20.81;100.00;101889.88;5090597;28;20037;-57
2023/08/23 07:38:25;;;;;;;35.58;24.38;;;;;;;20.47;100.00;101854.34;5090715;28;20023;-49
2023/08/23 07:40:56;;;;;;;36.80;26.60;;;;;;;20.44;100.00;101849.19;5090304;28;20162;-52
2023/08/23 07:43:22;;;;;;;37.60;28.20;;;;;;;20.62;100.00;101896.28;5090851;28;20024;-48
2023/08/23 07:45:52;;;;;;;34.85;27.40;;;;;;;20.58;100.00;101886.69;5090512;28;20035;-55
2023/08/23 07:48:18;;;;;;;38.97;27.25;;;;;;;20.80;100.00;101885.44;5087866;28;20508;-50
2023/08/23 07:50:47;;;;;;;31.50;25.77;;;;;;;21.28;100.00;101899.50;5088946;28;20125;-53
2023/08/23 07:53:13;;;;;;;31.30;23.38;;;;;;;21.91;100.00;101906.38;5088788;28;20032;-53
2023/08/23 07:55:38;;;;;;;28.88;22.77;;;;;;;22.15;100.00;101856.56;5086993;28;20161;-52
2023/08/23 07:58:03;;;;;;;31.55;24.02;;;;;;;22.70;100.00;101913.75;5089549;28;20111;-50
2023/08/23 08:00:29;;;;;;;32.40;23.30;;;;;;;22.83;100.00;101922.69;5090205;28;20140;-50
2023/08/23 08:02:54;;;;;;;26.23;20.63;;;;;;;22.91;100.00;101911.47;5089951;28;20044;-54
2023/08/23 08:05:19;;;;;;;28.95;20.73;;;;;;;23.10;100.00;101930.72;5088837;28;20090;-53
2023/08/23 08:07:45;;;;;;;25.08;18.83;;;;;;;23.13;100.00;101900.13;5088644;28;20044;-54
2023/08/23 08:10:10;;;;;;;23.23;18.40;;;;;;;23.24;100.00;101885.00;5088930;28;20028;-48
2023/08/23 08:12:35;;;;;;;24.33;18.83;;;;;;;23.93;100.00;101970.63;5089183;28;20036;-49
2023/08/23 08:15:05;;;;;;;21.60;17.42;;;;;;;24.06;100.00;101963.44;5089862;28;20036;-52
2023/08/23 08:17:31;;;;;;;21.43;18.80;;;;;;;24.21;100.00;101906.84;5090058;28;20453;-54
2023/08/23 08:19:56;;;;;;;21.45;17.98;;;;;;;24.87;100.00;101953.03;5088732;28;20039;-54
2023/08/23 08:22:21;;;;;;;21.48;18.25;;;;;;;25.31;100.00;101975.75;5089764;28;20032;-52
2023/08/23 08:24:47;;;;;;;21.75;17.95;;;;;;;25.17;100.00;101909.47;5089211;28;20111;-50
2023/08/23 08:27:12;;;;;;;26.77;19.02;;;;;;;25.72;100.00;101951.91;5088352;28;20071;-53
2023/08/23 08:29:37;;;;;;;22.73;17.73;;;;;;;26.05;100.00;101951.94;5088898;28;20043;-54
2023/08/23 08:32:03;;;;;;;21.65;17.17;;;;;;;26.14;100.00;101924.25;5089588;28;20043;-53
2023/08/23 08:34:28;;;;;;;19.58;16.02;;;;;;;26.90;100.00;101966.63;5090304;28;20064;-51
2023/08/23 08:36:54;;;;;;;22.23;17.52;;;;;;;26.71;100.00;101953.72;5089388;28;20028;-51
2023/08/23 08:39:19;;;;;;;24.05;19.95;;;;;;;26.51;100.00;101935.59;5088817;28;20035;-53
2023/08/23 08:41:45;;;;;;;27.40;18.70;;;;;;;26.90;100.00;101973.84;5088952;28;20043;-54
2023/08/23 08:44:12;;;;;;;22.02;19.38;;;;;;;26.88;100.00;101979.41;5087479;28;20032;-54
2023/08/23 08:46:39;;;;;;;24.20;17.15;;;;;;;26.71;100.00;101933.94;5088261;28;20051;-54
2023/08/23 08:49:04;;;;;;;20.25;16.35;;;;;;;27.14;100.00;101967.28;5089727;28;20518;-54
2023/08/23 08:51:33;;;;;;;18.52;16.63;;;;;;;27.50;100.00;101974.09;5089315;28;20073;-52
2023/08/23 08:53:58;;;;;;;21.10;16.30;;;;;;;27.44;100.00;101935.94;5089645;28;20032;-49
2023/08/23 08:56:24;;;;;;;19.95;15.48;;;;;;;27.99;100.00;101965.31;5088908;28;20043;-53
2023/08/23 08:58:50;;;;;;;18.08;16.20;;;;;;;28.31;100.00;101984.16;5087692;28;20040;-51
2023/08/23 09:01:16;;;;;;;18.17;15.18;;;;;;;28.43;100.00;101993.88;5087344;28;20082;-54
2023/08/23 09:03:41;;;;;;;18.98;16.45;;;;;;;28.47;100.00;101979.94;5089422;28;20142;-54
2023/08/23 09:06:07;;;;;;;19.73;16.13;;;;;;;28.65;100.00;101977.44;5088492;28;20036;-53
2023/08/23 09:08:34;;;;;;;18.02;13.68;;;;;;;28.92;100.00;101987.63;5090138;28;20032;-54
2023/08/23 09:10:59;;;;;;;16.40;12.70;;;;;;;28.84;100.00;101949.50;5070603;28;20039;-50
2023/08/23 09:13:25;;;;;;;14.02;11.68;;;;;;;29.34;100.00;101989.09;5087953;28;20043;-53
2023/08/23 09:15:51;;;;;;;14.15;11.75;;;;;;;29.27;100.00;101951.88;5089473;28;20483;-54
2023/08/23 09:18:19;;;;;;;14.32;11.30;;;;;;;29.29;100.00;101950.72;5086835;28;20051;-56
2023/08/23 09:20:45;;;;;;;13.60;11.63;;;;;;;29.17;100.00;101932.84;5087877;28;20550;-50
2023/08/23 09:23:10;;;;;;;12.93;10.25;;;;;;;29.78;100.00;101989.47;5089535;28;20135;-56
2023/08/23 09:25:36;;;;;;;15.43;11.88;;;;;;;30.09;100.00;101991.84;5088901;28;20039;-51
2023/08/23 09:28:01;;;;;;;14.43;10.98;;;;;;;30.34;100.00;102003.03;5088754;28;20032;-54
2023/08/23 09:30:27;;;;;;;13.68;11.00;;;;;;;30.49;100.00;101999.72;5089133;28;20089;-53
2023/08/23 09:32:52;;;;;;;16.30;10.25;;;;;;;30.44;100.00;102002.06;5090042;28;20328;-53
2023/08/23 09:35:18;;;;;;;10.82;9.45;;;;;;;30.57;100.00;101990.81;5088578;28;20047;-53
2023/08/23 09:37:47;;;;;;;10.68;7.07;;;;;;;30.93;100.00;102008.94;5092450;28;20044;-52
2023/08/23 09:40:20;;;;;;;10.45;7.97;;;;;;;30.85;100.00;102002.53;5092927;28;20028;-53
2023/08/23 09:42:46;;;;;;;12.57;8.45;;;;;;;30.78;100.00;101990.53;5091690;28;20048;-55
2023/08/23 09:45:20;;;;;;;9.07;6.45;;;;;;;30.99;100.00;101993.88;5093041;28;20514;-55
2023/08/23 09:47:55;;;;;;;11.15;6.70;;;;;;;31.43;100.00;101992.09;5092791;28;20398;-51
2023/08/23 09:50:24;;;;;;;8.48;5.72;;;;;;;31.36;100.00;101947.47;5091515;28;20028;-50
2023/08/23 09:53:15;;;;;;;6.72;5.53;;;;;;;31.31;100.00;101945.22;5091856;28;20044;-56
2023/08/23 09:55:42;;;;;;;6.30;4.60;;;;;;;31.79;100.00;101992.91;5091446;28;20024;-51
2023/08/23 09:58:08;;;;;;;9.25;4.88;;;;;;;31.97;100.00;101997.28;5092565;28;20040;-55
2023/08/23 10:00:34;;;;;;;9.60;5.60;;;;;;;31.56;100.00;101928.09;5092645;28;20054;-55
2023/08/23 10:03:00;;;;;;;5.82;3.92;;;;;;;32.08;100.00;101947.16;5092795;28;20035;-53
2023/08/23 10:05:26;;;;;;;8.38;4.55;;;;;;;32.51;100.00;101963.38;5088824;28;20487;-52
2023/08/23 10:07:55;;;;;;;10.65;4.82;;;;;;;32.10;100.00;101951.44;5092247;28;20127;-53
2023/08/23 10:10:20;;;;;;;5.78;5.05;;;;;;;32.09;100.00;101959.75;5091811;28;20062;-57
2023/08/23 10:12:48;;;;;;;6.82;4.78;;;;;;;32.52;100.00;101999.63;5091804;28;20036;-54
2023/08/23 10:15:16;;;;;;;7.88;5.60;;;;;;;32.28;100.00;101959.53;5074054;28;20035;-54
2023/08/23 10:17:43;;;;;;;7.43;4.53;;;;;;;32.67;100.00;102012.50;5090384;28;20127;-56
2023/08/23 10:20:10;;;;;;;8.30;4.05;;;;;;;32.58;100.00;102004.44;5090280;28;20036;-55
2023/08/23 10:22:36;;;;;;;8.00;4.88;;;;;;;32.88;100.00;101986.66;5072782;28;20111;-52
2023/08/23 10:25:03;;;;;;;7.82;4.05;;;;;;;32.72;100.00;101938.41;5090838;28;20115;-55
2023/08/23 10:27:28;;;;;;;7.20;4.00;;;;;;;32.87;100.00;102001.34;5090959;28;20032;-52
2023/08/23 10:29:54;;;;;;;7.18;4.40;;;;;;;33.49;100.00;101976.16;5089955;28;20495;-53
2023/08/23 10:32:19;;;;;;;6.25;4.00;;;;;;;33.67;100.00;101948.72;5091033;28;20036;-54
2023/08/23 10:34:45;;;;;;;5.85;4.28;;;;;;;33.17;100.00;101984.34;5091688;28;20024;-54
2023/08/23 10:37:17;;;;;;;8.30;4.28;;;;;;;31.67;100.00;101932.44;5091264;28;20147;-54
2023/08/23 10:39:53;;;;;;;5.70;3.10;;;;;;;31.52;100.00;101980.28;5090384;28;20031;-56
2023/08/23 10:42:19;;;;;;;6.80;3.50;;;;;;;31.56;100.00;101938.97;5090002;28;20123;-56
2023/08/23 10:44:59;;;;;;;7.93;3.28;;;;;;;31.63;100.00;101942.78;5091156;28;20028;-52
2023/08/23 10:47:25;;;;;;;7.95;3.00;;;;;;;31.41;100.00;101986.78;5090783;28;20123;-53
2023/08/23 10:49:51;;;;;;;6.55;2.42;;;;;;;30.77;100.00;101973.38;5089487;28;20448;-52
2023/08/23 10:52:17;;;;;;;5.35;2.08;;;;;;;29.68;100.00;101959.66;5089847;28;20092;-51
2023/08/23 10:54:42;;;;;;;8.27;2.78;;;;;;;28.66;100.00;101990.00;5089256;28;20031;-53
2023/08/23 10:57:09;;;;;;;5.25;2.17;;;;;;;28.63;100.00;101954.19;5091297;28;20884;-53
2023/08/23 10:59:34;;;;;;;5.13;2.00;;;;;;;29.89;100.00;101992.06;5091132;28;20131;-54
2023/08/23 11:02:00;;;;;;;3.30;1.60;;;;;;;31.06;100.00;101984.06;5089626;28;20182;-52